Time;durP1;ratioP1;P1;durP2;ratioP2;P2;SDS_P1;SDS_P2;PMS_P1;PMS_P2;Temp;Humidity;BMP_temperature;BMP_pressure;BME280_temperature;BME280_humidity;BME280_pressure;Samples;Min_cycle;Max_cycle;Signal;HPM_P1;HPM_P2
2023/03/27 00:00:26;;;;;;;5.90;0.85;;;3.50;99.90;;;;;;5091647;28;20086;-59
2023/03/27 00:02:53;;;;;;;6.95;1.00;;;3.40;99.90;;;;;;5092550;28;20055;-59
2023/03/27 00:05:19;;;;;;;5.07;0.75;;;3.40;99.90;;;;;;5091487;28;20044;-59
2023/03/27 00:07:48;;;;;;;5.50;0.98;;;3.40;99.90;;;;;;5092347;28;20114;-59
2023/03/27 00:10:15;;;;;;;5.38;1.35;;;3.40;99.90;;;;;;5092171;28;20048;-59
2023/03/27 00:12:43;;;;;;;7.15;1.10;;;3.40;99.90;;;;;;5090722;28;20044;-59
2023/03/27 00:15:16;;;;;;;7.25;1.35;;;3.40;99.90;;;;;;5092336;28;20071;-59
2023/03/27 00:17:47;;;;;;;8.65;2.35;;;3.40;99.90;;;;;;5092324;28;20403;-59
2023/03/27 00:20:14;;;;;;;11.20;1.10;;;3.50;99.90;;;;;;5092065;28;20552;-59
2023/03/27 00:22:40;;;;;;;6.78;0.90;;;3.40;99.90;;;;;;5092328;28;20128;-59
2023/03/27 00:25:07;;;;;;;8.05;1.10;;;3.40;99.90;;;;;;5092159;28;20050;-59
2023/03/27 00:27:33;;;;;;;6.43;1.00;;;3.40;99.90;;;;;;5091981;28;20404;-59
2023/03/27 00:29:58;;;;;;;8.35;1.08;;;3.30;99.90;;;;;;5091039;28;20315;-59
2023/03/27 00:32:24;;;;;;;7.88;1.02;;;3.30;99.90;;;;;;5092080;28;20463;-59
2023/03/27 00:34:50;;;;;;;6.05;1.60;;;3.20;99.90;;;;;;5092066;28;20035;-59
2023/03/27 00:37:15;;;;;;;4.95;1.00;;;3.20;99.90;;;;;;5091842;28;20040;-59
2023/03/27 00:39:41;;;;;;;8.20;0.95;;;3.20;99.90;;;;;;5092097;28;20472;-59
2023/03/27 00:42:13;;;;;;;6.35;0.88;;;3.30;99.90;;;;;;5091814;28;20515;-59
2023/03/27 00:44:38;;;;;;;6.53;1.00;;;3.30;99.90;;;;;;5092272;28;20446;-59
2023/03/27 00:47:06;;;;;;;6.57;1.27;;;3.30;99.90;;;;;;5091945;28;20044;-59
2023/03/27 00:49:36;;;;;;;6.07;1.08;;;3.30;99.90;;;;;;5090714;28;20126;-59
2023/03/27 00:52:03;;;;;;;10.80;1.23;;;3.20;99.90;;;;;;5091612;28;20048;-59
2023/03/27 00:54:33;;;;;;;8.45;1.25;;;3.30;99.90;;;;;;5091627;28;20039;-59
2023/03/27 00:57:04;;;;;;;5.70;1.17;;;3.20;99.90;;;;;;5091916;28;20082;-60
2023/03/27 00:59:35;;;;;;;8.60;1.20;;;3.10;99.90;;;;;;5091669;28;20083;-60
2023/03/27 01:02:06;;;;;;;7.60;1.02;;;3.00;99.90;;;;;;5095349;28;20090;-59
2023/03/27 01:04:34;;;;;;;6.50;1.30;;;3.10;99.90;;;;;;5095955;28;20048;-59
2023/03/27 01:07:02;;;;;;;8.25;1.25;;;3.00;99.90;;;;;;5095979;28;20340;-59
2023/03/27 01:09:28;;;;;;;6.63;0.80;;;3.00;99.90;;;;;;5094458;28;20055;-59
2023/03/27 01:12:16;;;;;;;4.25;1.27;;;3.00;99.90;;;;;;5095821;28;20036;-59
2023/03/27 01:15:00;;;;;;;4.28;1.00;;;3.00;99.90;;;;;;5095724;28;20040;-59
2023/03/27 01:17:26;;;;;;;7.60;0.95;;;3.00;99.90;;;;;;5095620;28;20040;-59
2023/03/27 01:20:21;;;;;;;5.82;1.13;;;3.00;99.90;;;;;;5095608;28;20046;-59
2023/03/27 01:23:25;;;;;;;11.02;1.08;;;3.00;99.90;;;;;;5095482;28;20119;-59
2023/03/27 01:26:28;;;;;;;7.30;0.95;;;3.00;99.90;;;;;;5095593;28;20120;-59
2023/03/27 01:29:17;;;;;;;6.78;1.25;;;3.00;99.90;;;;;;5095306;28;20113;-59
2023/03/27 01:32:01;;;;;;;5.35;1.13;;;3.10;99.90;;;;;;5095329;28;20036;-59
2023/03/27 01:35:15;;;;;;;8.38;1.40;;;3.10;99.90;;;;;;5095068;28;20560;-59
2023/03/27 01:37:55;;;;;;;5.47;0.90;;;3.10;99.90;;;;;;5095266;28;20043;-59
2023/03/27 01:40:49;;;;;;;4.68;1.15;;;3.10;99.90;;;;;;5095016;28;20452;-59
2023/03/27 01:43:25;;;;;;;10.63;1.35;;;3.20;99.90;;;;;;5095110;28;20491;-59
2023/03/27 01:46:12;;;;;;;3.58;1.00;;;3.20;99.90;;;;;;5095235;28;20400;-59
2023/03/27 01:48:47;;;;;;;7.43;1.67;;;3.20;99.90;;;;;;5094702;28;20077;-59
2023/03/27 01:51:26;;;;;;;6.32;1.20;;;3.20;99.90;;;;;;5093689;28;20509;-57
2023/03/27 01:53:59;;;;;;;5.53;1.00;;;3.20;99.90;;;;;;5094930;28;20044;-59
2023/03/27 01:56:32;;;;;;;7.80;1.90;;;3.10;99.90;;;;;;5094891;28;20115;-59
2023/03/27 01:59:07;;;;;;;8.25;1.40;;;2.90;99.90;;;;;;5094620;28;20048;-59
2023/03/27 02:01:37;;;;;;;6.13;1.55;;;2.90;99.90;;;;;;5094804;28;20571;-59
2023/03/27 02:04:06;;;;;;;8.88;1.20;;;3.00;99.90;;;;;;5094810;28;20044;-59
2023/03/27 02:06:36;;;;;;;5.53;1.00;;;3.00;99.90;;;;;;5093852;28;20073;-59
2023/03/27 02:09:07;;;;;;;6.57;1.17;;;3.00;99.90;;;;;;5093293;28;20043;-59
2023/03/27 02:11:42;;;;;;;14.05;1.67;;;3.10;99.90;;;;;;5093009;28;20043;-59
2023/03/27 02:14:16;;;;;;;7.63;1.52;;;3.20;99.90;;;;;;5094604;28;20040;-59
2023/03/27 02:16:47;;;;;;;8.15;1.38;;;3.20;99.90;;;;;;5094501;28;20500;-59
2023/03/27 02:19:19;;;;;;;11.05;1.63;;;3.30;99.90;;;;;;5094318;28;20032;-59
2023/03/27 02:21:46;;;;;;;;;;;3.20;99.90;;;;;;5095019;28;20048;-59
2023/03/27 02:24:17;;;;;;;9.30;1.88;;;3.20;99.90;;;;;;5094352;28;19916;-59
2023/03/27 02:26:44;;;;;;;9.48;1.63;;;3.20;99.90;;;;;;5094626;28;20085;-59
2023/03/27 02:29:24;;;;;;;7.18;1.40;;;3.20;99.90;;;;;;5094492;28;20044;-59
2023/03/27 02:31:58;;;;;;;5.43;1.23;;;3.20;99.90;;;;;;5094194;28;20105;-59
2023/03/27 02:34:45;;;;;;;9.07;1.40;;;3.20;99.90;;;;;;5094043;28;20415;-59
2023/03/27 02:37:45;;;;;;;5.57;1.30;;;3.10;99.90;;;;;;5094449;28;20058;-59
2023/03/27 02:40:36;;;;;;;7.75;1.20;;;3.20;99.90;;;;;;5093994;28;20141;-59
2023/03/27 02:43:11;;;;;;;9.82;1.30;;;3.20;99.90;;;;;;5094219;28;20395;-59
2023/03/27 02:45:49;;;;;;;10.70;2.60;;;3.10;99.90;;;;;;5093904;28;20125;-59
2023/03/27 02:48:48;;;;;;;10.55;2.17;;;3.00;99.90;;;;;;5093657;28;20664;-59
2023/03/27 02:51:22;;;;;;;3.85;1.00;;;3.10;99.90;;;;;;5084874;28;20044;-59
2023/03/27 02:54:02;;;;;;;8.77;1.45;;;3.00;99.90;;;;;;5092297;28;20476;-59
2023/03/27 02:56:32;;;;;;;11.18;1.30;;;3.00;99.90;;;;;;5093850;28;20039;-59
2023/03/27 02:59:09;;;;;;;8.10;1.27;;;3.00;99.90;;;;;;5093744;28;20373;-59
2023/03/27 03:01:36;;;;;;;8.68;1.55;;;2.90;99.90;;;;;;5093490;28;20040;-59
2023/03/27 03:04:10;;;;;;;10.02;1.85;;;2.90;99.90;;;;;;5093908;28;20074;-59
2023/03/27 03:06:41;;;;;;;5.55;1.10;;;2.80;99.90;;;;;;5093674;28;20401;-59
2023/03/27 03:09:08;;;;;;;6.57;1.30;;;2.80;99.90;;;;;;5093713;28;20468;-59
2023/03/27 03:11:36;;;;;;;10.20;1.50;;;2.80;99.90;;;;;;5093218;28;20119;-59
2023/03/27 03:14:02;;;;;;;7.85;1.40;;;2.90;99.90;;;;;;5093369;28;20124;-59
2023/03/27 03:16:29;;;;;;;10.25;1.42;;;2.80;99.90;;;;;;5093311;28;20048;-59
2023/03/27 03:18:55;;;;;;;9.18;1.25;;;2.70;99.90;;;;;;5091828;28;20492;-58
2023/03/27 03:21:21;;;;;;;8.48;1.83;;;2.70;99.90;;;;;;5093481;28;20082;-59
2023/03/27 03:23:47;;;;;;;5.82;1.27;;;2.70;99.90;;;;;;5092586;28;20119;-59
2023/03/27 03:26:14;;;;;;;9.07;1.70;;;2.70;99.90;;;;;;5091893;28;20040;-59
2023/03/27 03:28:40;;;;;;;8.98;2.08;;;2.80;99.90;;;;;;5093118;28;20039;-59
2023/03/27 03:31:09;;;;;;;9.40;1.23;;;2.80;99.90;;;;;;5091931;28;20472;-59
2023/03/27 03:33:36;;;;;;;8.05;1.67;;;2.80;99.90;;;;;;5092833;28;20056;-59
2023/03/27 03:36:03;;;;;;;8.18;1.55;;;2.80;99.90;;;;;;5092827;28;20036;-59
2023/03/27 03:38:29;;;;;;;7.05;1.92;;;2.70;99.90;;;;;;5093576;28;20078;-59
2023/03/27 03:40:58;;;;;;;7.10;1.40;;;2.60;99.90;;;;;;5092843;28;20044;-59
2023/03/27 03:43:30;;;;;;;10.32;1.83;;;2.70;99.90;;;;;;5091635;28;20048;-59
2023/03/27 03:45:55;;;;;;;6.15;1.70;;;2.70;99.90;;;;;;5092860;28;20055;-59
2023/03/27 03:48:22;;;;;;;7.07;1.35;;;2.70;99.90;;;;;;5092904;28;20036;-59
2023/03/27 03:50:48;;;;;;;8.48;2.05;;;2.90;99.90;;;;;;5092375;28;20040;-58
2023/03/27 03:53:16;;;;;;;10.52;2.10;;;2.90;99.90;;;;;;5092904;28;20032;-59
2023/03/27 03:55:43;;;;;;;8.50;2.88;;;3.00;99.90;;;;;;5092397;28;20036;-59
2023/03/27 03:58:09;;;;;;;9.02;1.85;;;3.10;99.90;;;;;;5092833;28;20047;-59
2023/03/27 04:00:39;;;;;;;10.05;1.65;;;3.20;99.90;;;;;;5092636;28;20036;-59
2023/03/27 04:03:07;;;;;;;9.38;1.90;;;3.20;99.90;;;;;;5092357;28;20093;-59
2023/03/27 04:05:37;;;;;;;6.60;1.35;;;3.20;99.90;;;;;;5092599;28;20294;-59
2023/03/27 04:08:06;;;;;;;7.70;1.58;;;3.20;99.90;;;;;;5092519;28;20032;-59
2023/03/27 04:10:32;;;;;;;7.75;1.55;;;3.20;99.90;;;;;;5092563;28;20450;-59
2023/03/27 04:12:58;;;;;;;8.10;1.15;;;3.20;99.90;;;;;;5092334;28;20032;-59
2023/03/27 04:15:25;;;;;;;9.95;1.52;;;3.30;99.90;;;;;;5092430;28;20032;-60
2023/03/27 04:17:51;;;;;;;7.57;1.20;;;3.40;99.90;;;;;;5092557;28;20404;-61
2023/03/27 04:20:17;;;;;;;10.07;1.20;;;3.30;99.90;;;;;;5092300;28;20073;-60
2023/03/27 04:22:45;;;;;;;6.93;1.27;;;3.30;99.90;;;;;;5092133;28;20044;-59
2023/03/27 04:25:13;;;;;;;9.25;1.02;;;3.30;99.90;;;;;;5092318;28;20090;-59
2023/03/27 04:27:39;;;;;;;6.40;1.52;;;3.20;99.90;;;;;;5092417;28;20050;-59
2023/03/27 04:30:09;;;;;;;3.90;0.85;;;3.20;99.90;;;;;;5092037;28;20484;-59
2023/03/27 04:32:35;;;;;;;7.60;1.02;;;3.20;99.90;;;;;;5091956;28;20056;-59
2023/03/27 04:35:02;;;;;;;8.63;0.98;;;3.30;99.90;;;;;;5091914;28;20114;-59
2023/03/27 04:37:29;;;;;;;6.50;1.20;;;3.30;99.90;;;;;;5091976;28;20091;-59
2023/03/27 04:39:55;;;;;;;8.02;1.25;;;3.30;99.90;;;;;;5090661;28;20043;-59
2023/03/27 04:42:23;;;;;;;7.80;1.00;;;3.40;99.90;;;;;;5091987;28;20024;-59
2023/03/27 04:44:51;;;;;;;4.00;0.88;;;3.40;99.90;;;;;;5092234;28;20126;-59
2023/03/27 04:47:17;;;;;;;4.88;0.85;;;3.20;99.90;;;;;;5092063;28;20048;-59
2023/03/27 04:49:45;;;;;;;4.65;0.70;;;3.30;99.90;;;;;;5090425;28;20379;-59
2023/03/27 04:52:13;;;;;;;5.45;0.82;;;3.00;99.90;;;;;;5091640;28;20051;-59
2023/03/27 04:54:40;;;;;;;2.65;0.60;;;2.90;99.90;;;;;;5092039;28;20047;-59
2023/03/27 04:57:07;;;;;;;4.45;0.60;;;2.80;99.90;;;;;;5091873;28;20051;-59
2023/03/27 04:59:33;;;;;;;6.43;0.70;;;2.80;99.90;;;;;;5091738;28;20550;-59
2023/03/27 05:02:00;;;;;;;8.02;0.93;;;2.70;99.90;;;;;;5091823;28;20093;-59
2023/03/27 05:04:27;;;;;;;4.20;1.08;;;2.70;99.90;;;;;;5091762;28;20047;-59
2023/03/27 05:06:58;;;;;;;3.38;0.95;;;2.80;99.90;;;;;;5091960;28;20127;-59
2023/03/27 05:09:24;;;;;;;4.65;0.80;;;2.70;99.90;;;;;;5091597;28;20040;-59
2023/03/27 05:11:51;;;;;;;7.85;0.80;;;2.60;99.90;;;;;;5091841;28;20427;-59
2023/03/27 05:14:21;;;;;;;1.77;0.65;;;2.60;99.90;;;;;;5091028;28;20084;-59
2023/03/27 05:16:51;;;;;;;5.45;0.80;;;2.60;99.90;;;;;;5091623;28;20103;-59
2023/03/27 05:19:18;;;;;;;7.50;0.85;;;2.50;99.90;;;;;;5091907;28;20173;-59
2023/03/27 05:21:45;;;;;;;6.88;0.82;;;2.30;99.90;;;;;;5091701;28;20052;-59
2023/03/27 05:24:12;;;;;;;3.17;0.90;;;2.50;99.90;;;;;;5091768;28;20087;-59
2023/03/27 05:26:38;;;;;;;4.40;0.77;;;2.40;99.90;;;;;;5090297;28;20116;-59
2023/03/27 05:29:04;;;;;;;3.30;0.60;;;2.50;99.90;;;;;;5090292;28;20450;-59
2023/03/27 05:31:31;;;;;;;3.08;0.90;;;2.60;99.90;;;;;;5089618;28;20079;-59
2023/03/27 05:33:58;;;;;;;5.25;0.77;;;2.70;99.90;;;;;;5089733;28;20412;-59
2023/03/27 05:36:26;;;;;;;3.78;0.90;;;2.70;99.90;;;;;;5090087;28;20097;-59
2023/03/27 05:38:53;;;;;;;3.35;0.85;;;2.80;99.90;;;;;;5090047;28;20420;-59
2023/03/27 05:41:19;;;;;;;3.03;0.60;;;2.80;99.90;;;;;;5089772;28;20393;-59
2023/03/27 05:43:45;;;;;;;3.75;1.20;;;2.70;99.90;;;;;;5089581;28;20047;-59
2023/03/27 05:46:12;;;;;;;8.57;1.10;;;2.60;99.90;;;;;;5090261;28;20090;-59
2023/03/27 05:48:38;;;;;;;2.58;0.70;;;2.70;99.90;;;;;;5093816;28;20035;-59
2023/03/27 05:51:05;;;;;;;5.22;0.75;;;2.70;99.90;;;;;;5092172;28;20048;-59
2023/03/27 05:53:31;;;;;;;3.28;0.60;;;2.70;99.90;;;;;;5093426;28;20050;-59
2023/03/27 05:55:56;;;;;;;5.95;1.15;;;2.80;99.90;;;;;;5093837;28;20040;-59
2023/03/27 05:58:22;;;;;;;4.72;0.70;;;2.80;99.90;;;;;;5093231;28;20108;-59
2023/03/27 06:00:49;;;;;;;3.92;0.80;;;2.80;99.90;;;;;;5093038;28;20543;-59
2023/03/27 06:03:15;;;;;;;2.63;0.60;;;2.80;99.90;;;;;;5093365;28;20089;-59
2023/03/27 06:05:41;;;;;;;5.90;0.90;;;2.80;99.90;;;;;;5093160;28;20479;-59
2023/03/27 06:08:08;;;;;;;3.00;0.80;;;2.80;99.90;;;;;;5093200;28;20103;-59
2023/03/27 06:10:34;;;;;;;3.97;0.80;;;2.90;99.90;;;;;;5091670;28;20485;-59
2023/03/27 06:13:01;;;;;;;4.03;0.75;;;2.90;99.90;;;;;;5092976;28;20508;-59
2023/03/27 06:15:27;;;;;;;7.32;2.05;;;3.10;99.90;;;;;;5092013;28;20044;-59
2023/03/27 06:17:53;;;;;;;5.85;0.82;;;3.10;99.90;;;;;;5093064;28;20047;-59
2023/03/27 06:20:20;;;;;;;4.43;0.80;;;3.10;99.90;;;;;;5092925;28;20629;-59
2023/03/27 06:22:48;;;;;;;8.88;1.08;;;3.20;99.90;;;;;;5091547;28;20052;-59
2023/03/27 06:25:17;;;;;;;6.45;1.00;;;3.20;99.90;;;;;;5092948;28;20492;-59
2023/03/27 06:27:45;;;;;;;3.47;0.93;;;3.40;99.90;;;;;;5091323;28;20047;-59
2023/03/27 06:30:16;;;;;;;5.07;1.15;;;3.50;99.90;;;;;;5093121;28;20183;-59
2023/03/27 06:32:46;;;;;;;4.60;0.77;;;3.70;99.90;;;;;;5092660;28;20121;-59
2023/03/27 06:35:15;;;;;;;9.10;1.10;;;3.80;99.90;;;;;;5091976;28;20390;-59
2023/03/27 06:37:44;;;;;;;4.70;0.88;;;3.90;99.90;;;;;;5072596;28;20129;-59
2023/03/27 06:40:21;;;;;;;8.70;1.23;;;3.90;99.90;;;;;;5072277;28;20054;-58
2023/03/27 06:43:01;;;;;;;7.65;0.88;;;4.00;99.90;;;;;;5072135;28;20036;-59
2023/03/27 06:45:37;;;;;;;7.45;0.85;;;4.10;99.90;;;;;;5072488;28;20511;-59
2023/03/27 06:48:04;;;;;;;6.63;1.02;;;4.20;99.90;;;;;;5072866;28;20392;-59
2023/03/27 06:50:31;;;;;;;6.95;1.27;;;4.30;99.90;;;;;;5091820;28;20043;-59
2023/03/27 06:52:57;;;;;;;8.13;1.08;;;4.40;99.90;;;;;;5092115;28;20046;-59
2023/03/27 06:55:26;;;;;;;7.15;1.27;;;4.40;99.90;;;;;;5091152;28;20082;-59
2023/03/27 06:57:54;;;;;;;7.63;1.55;;;4.50;99.90;;;;;;5089735;28;20040;-59
2023/03/27 07:00:23;;;;;;;5.13;0.82;;;4.50;99.90;;;;;;5092015;28;20500;-58
2023/03/27 07:03:03;;;;;;;10.07;1.05;;;4.50;99.90;;;;;;5092052;28;20036;-59
2023/03/27 07:05:32;;;;;;;5.28;1.00;;;4.60;99.90;;;;;;5092354;28;20050;-59
2023/03/27 07:07:58;;;;;;;5.03;0.90;;;4.70;99.90;;;;;;5092109;28;20032;-59
2023/03/27 07:10:24;;;;;;;4.45;1.00;;;4.80;99.90;;;;;;5092873;28;20050;-59
2023/03/27 07:12:55;;;;;;;5.30;0.90;;;4.70;99.90;;;;;;5093197;28;20036;-59
2023/03/27 07:15:22;;;;;;;9.63;1.05;;;4.50;99.90;;;;;;5093275;28;20032;-59
2023/03/27 07:18:07;;;;;;;5.57;1.00;;;4.50;99.90;;;;;;5093089;28;20365;-59
2023/03/27 07:20:34;;;;;;;7.38;1.17;;;4.50;99.90;;;;;;5093363;28;20446;-59
2023/03/27 07:23:01;;;;;;;5.90;0.80;;;4.60;99.90;;;;;;5093117;28;20531;-59
2023/03/27 07:25:35;;;;;;;7.13;1.00;;;4.60;99.90;;;;;;5093190;28;20043;-59
2023/03/27 07:28:03;;;;;;;3.65;0.77;;;4.60;99.90;;;;;;5091850;28;20051;-59
2023/03/27 07:30:29;;;;;;;7.40;1.10;;;4.20;99.90;;;;;;5091673;28;20125;-60
2023/03/27 07:32:57;;;;;;;6.60;1.17;;;3.30;99.90;;;;;;5092041;28;20464;-60
2023/03/27 07:35:23;;;;;;;4.00;0.60;;;3.10;99.90;;;;;;5091642;28;20036;-59
2023/03/27 07:37:52;;;;;;;5.40;1.05;;;2.80;99.90;;;;;;5091503;28;20597;-58
2023/03/27 07:40:21;;;;;;;6.70;1.20;;;2.50;99.90;;;;;;5091266;28;20433;-59
2023/03/27 07:42:48;;;;;;;4.43;0.90;;;2.40;99.90;;;;;;5091128;28;20358;-58
2023/03/27 07:45:16;;;;;;;4.70;1.15;;;2.10;99.90;;;;;;5090178;28;20380;-59
2023/03/27 07:47:42;;;;;;;6.88;0.93;;;2.40;99.90;;;;;;5091197;28;20043;-59
2023/03/27 07:50:10;;;;;;;4.18;0.68;;;2.20;99.90;;;;;;5090369;28;20036;-59
2023/03/27 07:52:39;;;;;;;3.25;0.80;;;2.30;99.90;;;;;;5089517;28;20163;-59
2023/03/27 07:55:06;;;;;;;4.50;1.10;;;2.60;99.90;;;;;;5090303;28;20036;-59
2023/03/27 07:57:43;;;;;;;3.97;1.00;;;2.50;99.90;;;;;;5088535;28;20117;-59
2023/03/27 08:00:10;;;;;;;3.97;1.17;;;2.80;99.90;;;;;;5078895;28;20040;-58
2023/03/27 08:02:37;;;;;;;4.97;0.80;;;2.50;99.90;;;;;;5080306;28;20047;-59
2023/03/27 08:05:04;;;;;;;3.50;0.85;;;3.10;99.90;;;;;;5078627;28;20125;-59
2023/03/27 08:07:31;;;;;;;2.15;0.70;;;3.10;99.90;;;;;;5078982;28;20101;-59
2023/03/27 08:09:56;;;;;;;4.28;0.77;;;3.00;99.90;;;;;;5080738;28;20032;-59
2023/03/27 08:12:22;;;;;;;3.42;0.80;;;3.20;99.90;;;;;;5079507;28;20051;-59
2023/03/27 08:14:48;;;;;;;3.08;0.90;;;3.40;99.90;;;;;;5078163;28;20040;-59
2023/03/27 08:17:13;;;;;;;2.53;0.63;;;3.90;99.90;;;;;;5086346;28;20032;-59
2023/03/27 08:19:40;;;;;;;6.57;0.85;;;3.90;99.90;;;;;;5090145;28;20111;-58
2023/03/27 08:22:06;;;;;;;4.57;0.80;;;4.00;99.90;;;;;;5089268;28;20059;-59
2023/03/27 08:24:31;;;;;;;2.78;0.80;;;4.00;99.90;;;;;;5090414;28;20044;-59
2023/03/27 08:26:57;;;;;;;5.78;1.02;;;4.30;99.90;;;;;;5090734;28;20759;-59
2023/03/27 08:29:23;;;;;;;2.80;1.10;;;4.30;99.90;;;;;;5090520;28;20446;-59
2023/03/27 08:31:49;;;;;;;5.63;0.80;;;4.30;99.90;;;;;;5089844;28;20373;-58
2023/03/27 08:34:16;;;;;;;2.83;0.75;;;4.60;99.90;;;;;;5089857;28;20051;-59
2023/03/27 08:36:42;;;;;;;2.45;1.10;;;4.30;99.90;;;;;;5089130;28;20111;-59
2023/03/27 08:39:07;;;;;;;10.50;1.42;;;4.30;99.90;;;;;;5090259;28;20111;-59
2023/03/27 08:41:37;;;;;;;8.48;1.20;;;4.60;99.90;;;;;;5090459;28;20036;-59
2023/03/27 08:44:08;;;;;;;6.22;1.63;;;4.60;99.90;;;;;;5090142;28;20054;-59
2023/03/27 08:46:48;;;;;;;6.80;0.90;;;4.90;99.90;;;;;;5088423;28;20461;-59
2023/03/27 08:49:19;;;;;;;5.55;1.00;;;4.80;99.90;;;;;;5090369;28;20046;-59
2023/03/27 08:52:02;;;;;;;3.65;0.85;;;4.90;99.90;;;;;;5089954;28;20036;-59
2023/03/27 08:54:31;;;;;;;4.40;0.70;;;5.00;99.90;;;;;;5089981;28;20036;-59
2023/03/27 08:56:58;;;;;;;2.05;0.70;;;4.90;99.90;;;;;;5089843;28;20036;-58
2023/03/27 08:59:29;;;;;;;5.75;1.08;;;5.00;99.90;;;;;;5086959;28;20101;-59
2023/03/27 09:02:08;;;;;;;7.22;0.80;;;5.00;99.90;;;;;;5078559;28;20036;-59
2023/03/27 09:04:59;;;;;;;4.25;0.80;;;5.20;99.90;;;;;;5079003;28;20123;-59
2023/03/27 09:07:55;;;;;;;4.85;1.00;;;5.30;99.90;;;;;;5080800;28;20049;-59
2023/03/27 09:10:55;;;;;;;1.58;0.60;;;5.20;99.90;;;;;;5085871;28;20083;-59
2023/03/27 09:13:32;;;;;;;2.95;0.60;;;5.30;99.90;;;;;;5090414;28;20093;-59
2023/03/27 09:16:20;;;;;;;4.90;0.70;;;5.40;99.90;;;;;;5090261;28;20452;-59
2023/03/27 09:19:36;;;;;;;5.03;1.50;;;5.70;99.90;;;;;;5090020;28;20035;-59
2023/03/27 09:22:42;;;;;;;4.35;0.93;;;5.50;99.90;;;;;;5082905;28;20044;-59
2023/03/27 09:25:28;;;;;;;1.45;0.55;;;5.40;99.90;;;;;;5069847;28;20488;-59
2023/03/27 09:27:55;;;;;;;2.22;0.70;;;5.30;99.90;;;;;;5093637;28;20043;-59
2023/03/27 09:30:28;;;;;;;6.05;0.68;;;5.40;99.90;;;;;;5093806;28;20051;-59
2023/03/27 09:32:58;;;;;;;6.43;1.23;;;5.40;99.90;;;;;;5093673;28;20091;-59
2023/03/27 09:35:23;;;;;;;3.35;0.60;;;5.60;99.90;;;;;;5093757;28;20069;-59
2023/03/27 09:38:02;;;;;;;3.60;0.77;;;5.70;99.90;;;;;;5093644;28;20032;-59
2023/03/27 09:40:52;;;;;;;3.35;0.50;;;5.50;99.90;;;;;;5093389;28;20092;-59
2023/03/27 09:43:21;;;;;;;3.42;1.08;;;5.70;99.90;;;;;;5086644;28;20044;-59
2023/03/27 09:45:51;;;;;;;3.42;0.70;;;6.10;99.90;;;;;;5082050;28;20500;-59
2023/03/27 09:48:37;;;;;;;3.92;0.80;;;5.90;99.90;;;;;;5084159;28;20032;-59
2023/03/27 09:51:04;;;;;;;5.63;0.60;;;5.70;99.90;;;;;;5083449;28;20044;-59
2023/03/27 09:53:30;;;;;;;2.00;0.75;;;5.60;99.90;;;;;;5071910;28;20076;-58
2023/03/27 09:56:05;;;;;;;4.53;0.85;;;5.90;99.90;;;;;;5072879;28;20037;-59
2023/03/27 09:58:39;;;;;;;4.85;0.75;;;6.10;99.90;;;;;;5073293;28;20044;-59
2023/03/27 10:01:27;;;;;;;3.10;0.55;;;6.00;99.90;;;;;;5079827;28;20040;-60
2023/03/27 10:03:56;;;;;;;4.90;1.00;;;6.00;99.90;;;;;;5090044;28;20126;-58
2023/03/27 10:06:44;;;;;;;3.90;0.70;;;6.10;99.90;;;;;;5081677;28;20044;-59
2023/03/27 10:09:23;;;;;;;3.72;0.68;;;6.40;99.90;;;;;;5077217;28;20147;-59
2023/03/27 10:11:50;;;;;;;4.35;0.82;;;6.10;99.90;;;;;;5073358;28;20392;-59
2023/03/27 10:14:18;;;;;;;5.70;0.80;;;6.00;99.90;;;;;;5073485;28;20082;-60
2023/03/27 10:16:46;;;;;;;4.18;0.85;;;6.20;99.90;;;;;;5073635;28;20488;-59
2023/03/27 10:19:31;;;;;;;3.75;0.63;;;6.20;99.90;;;;;;5083052;28;20063;-59
2023/03/27 10:22:02;;;;;;;5.50;0.82;;;6.30;99.90;;;;;;5078166;28;20036;-59
2023/03/27 10:24:33;;;;;;;4.93;0.80;;;6.30;99.90;;;;;;5082361;28;20035;-59
2023/03/27 10:27:15;;;;;;;3.90;0.90;;;6.20;99.90;;;;;;5091410;28;20036;-60
2023/03/27 10:29:41;;;;;;;3.28;0.77;;;6.10;99.90;;;;;;5094426;28;20062;-59
2023/03/27 10:32:07;;;;;;;5.70;1.08;;;6.30;99.90;;;;;;5093614;28;20495;-59
2023/03/27 10:34:36;;;;;;;1.58;0.52;;;6.40;99.90;;;;;;5094125;28;20048;-59
2023/03/27 10:37:18;;;;;;;5.88;1.08;;;6.60;99.90;;;;;;5094345;28;20243;-59
2023/03/27 10:39:44;;;;;;;3.00;0.68;;;6.50;99.90;;;;;;5094256;28;20042;-59
2023/03/27 10:42:13;;;;;;;5.28;1.02;;;6.60;99.90;;;;;;5094001;28;20131;-59
2023/03/27 10:44:41;;;;;;;9.30;0.98;;;6.60;99.90;;;;;;5094181;28;20040;-61
2023/03/27 10:47:20;;;;;;;4.75;0.95;;;6.70;99.90;;;;;;5094142;28;20405;-60
2023/03/27 10:49:51;;;;;;;4.07;1.02;;;6.50;99.90;;;;;;5093733;28;20369;-59
2023/03/27 10:52:32;;;;;;;4.15;0.90;;;6.90;99.90;;;;;;5093391;28;20047;-60
2023/03/27 10:55:11;;;;;;;5.97;1.03;;;6.80;99.90;;;;;;5093808;28;20094;-59
2023/03/27 10:57:38;;;;;;;2.08;0.70;;;6.40;99.90;;;;;;5093889;28;20040;-59
2023/03/27 11:00:21;;;;;;;4.88;0.90;;;6.50;99.90;;;;;;5093639;28;20032;-59
2023/03/27 11:02:58;;;;;;;5.70;0.88;;;6.70;99.90;;;;;;5093142;28;20098;-59
2023/03/27 11:05:43;;;;;;;4.97;0.98;;;6.80;99.90;;;;;;5092324;28;20048;-59
2023/03/27 11:08:30;;;;;;;8.55;1.23;;;6.70;99.90;;;;;;5093605;28;20400;-59
2023/03/27 11:11:05;;;;;;;5.63;1.10;;;6.70;99.90;;;;;;5093386;28;20040;-58
2023/03/27 11:13:33;;;;;;;8.40;1.10;;;6.20;99.90;;;;;;5093490;28;20106;-59
2023/03/27 11:16:27;;;;;;;5.60;0.88;;;5.60;99.90;;;;;;5093304;28;20040;-59
2023/03/27 11:19:02;;;;;;;9.45;1.00;;;5.30;99.90;;;;;;5093355;28;20144;-59
2023/03/27 11:21:35;;;;;;;3.90;0.68;;;5.20;99.90;;;;;;5093364;28;20429;-59
2023/03/27 11:24:04;;;;;;;2.30;0.70;;;5.10;99.90;;;;;;5093237;28;20511;-59
2023/03/27 11:26:50;;;;;;;3.20;0.70;;;5.30;99.90;;;;;;5093192;28;20504;-59
2023/03/27 11:29:27;;;;;;;3.53;0.73;;;5.40;99.90;;;;;;5093061;28;20051;-59
2023/03/27 11:32:00;;;;;;;6.88;1.17;;;5.60;99.90;;;;;;5092979;28;20119;-59
2023/03/27 11:34:52;;;;;;;6.25;1.05;;;5.80;99.90;;;;;;5087815;28;20503;-59
2023/03/27 11:37:39;;;;;;;6.53;1.08;;;5.80;99.90;;;;;;5092607;28;20531;-60
2023/03/27 11:40:22;;;;;;;6.88;1.10;;;6.20;99.90;;;;;;5092953;28;20089;-59
2023/03/27 11:42:48;;;;;;;5.90;0.85;;;6.40;99.90;;;;;;5092911;28;20388;-59
2023/03/27 11:45:17;;;;;;;5.90;1.00;;;6.60;99.90;;;;;;5091248;28;20036;-59
2023/03/27 11:47:55;;;;;;;8.45;1.33;;;6.80;99.90;;;;;;5092411;28;20044;-59
2023/03/27 11:50:34;;;;;;;5.32;1.08;;;6.70;99.90;;;;;;5092012;28;20043;-59
2023/03/27 11:53:37;;;;;;;6.53;1.27;;;6.60;99.90;;;;;;5091789;28;20086;-59
2023/03/27 11:56:49;;;;;;;4.15;0.98;;;6.70;99.90;;;;;;5090129;28;20497;-59
2023/03/27 11:59:38;;;;;;;3.83;0.85;;;6.60;99.90;;;;;;5069978;28;20048;-59
2023/03/27 12:02:48;;;;;;;6.63;1.20;;;6.70;99.90;;;;;;5072137;28;20068;-59
2023/03/27 12:05:26;;;;;;;2.78;0.90;;;6.70;99.90;;;;;;5022963;28;20061;-59
2023/03/27 12:08:00;;;;;;;8.55;1.23;;;6.70;99.90;;;;;;5071004;28;20094;-59
2023/03/27 12:10:35;;;;;;;6.82;1.15;;;6.80;99.90;;;;;;5070386;28;20480;-59
2023/03/27 12:13:13;;;;;;;7.50;1.80;;;6.80;99.90;;;;;;5071067;28;20076;-59
2023/03/27 12:16:16;;;;;;;6.18;1.13;;;6.70;99.90;;;;;;5071136;28;20033;-59
2023/03/27 12:18:44;;;;;;;8.05;1.40;;;6.80;99.90;;;;;;5072051;28;20498;-59
2023/03/27 12:21:23;;;;;;;5.45;1.00;;;7.10;99.90;;;;;;5071564;28;20412;-59
2023/03/27 12:24:09;;;;;;;7.57;1.23;;;7.30;99.90;;;;;;5070020;28;20157;-59
2023/03/27 12:26:55;;;;;;;6.93;1.15;;;7.00;99.90;;;;;;5071550;28;20609;-59
2023/03/27 12:29:49;;;;;;;5.72;1.02;;;6.80;99.90;;;;;;5070403;28;20515;-59
2023/03/27 12:32:38;;;;;;;4.15;0.65;;;6.30;99.90;;;;;;5071593;28;20049;-59
2023/03/27 12:35:15;;;;;;;3.67;0.70;;;5.70;99.90;;;;;;5071299;28;20072;-58
2023/03/27 12:38:02;;;;;;;4.07;0.60;;;5.80;99.90;;;;;;5071349;28;20051;-59
2023/03/27 12:40:40;;;;;;;5.93;0.82;;;6.00;99.90;;;;;;5070194;28;20036;-59
2023/03/27 12:43:30;;;;;;;3.88;0.85;;;6.00;99.90;;;;;;5071317;28;20122;-59
2023/03/27 12:46:14;;;;;;;5.97;1.13;;;6.10;99.90;;;;;;5071644;28;20048;-59
2023/03/27 12:48:58;;;;;;;5.32;0.80;;;6.20;99.90;;;;;;5075913;28;20044;-59
2023/03/27 12:51:43;;;;;;;6.53;1.30;;;6.20;99.90;;;;;;5091270;28;20051;-59
2023/03/27 12:54:37;;;;;;;9.75;2.22;;;6.40;99.90;;;;;;5085288;28;20119;-59
2023/03/27 12:57:20;;;;;;;6.28;0.90;;;6.60;99.90;;;;;;5088200;28;20089;-59
2023/03/27 13:00:00;;;;;;;6.20;0.93;;;6.40;99.90;;;;;;5095176;28;20043;-59
2023/03/27 13:02:56;;;;;;;6.68;1.10;;;6.60;99.90;;;;;;5095946;28;20090;-59
2023/03/27 13:05:28;;;;;;;6.20;1.02;;;6.60;99.90;;;;;;5095909;28;20125;-59
2023/03/27 13:08:33;;;;;;;6.55;1.20;;;6.70;99.90;;;;;;5095711;28;20040;-59
2023/03/27 13:11:17;;;;;;;9.32;1.60;;;6.80;99.90;;;;;;5080259;28;20067;-59
2023/03/27 13:13:58;;;;;;;5.75;1.00;;;6.50;99.90;;;;;;5095529;28;20044;-59
2023/03/27 13:17:06;;;;;;;12.70;1.83;;;5.80;99.90;;;;;;5095473;28;20036;-59
2023/03/27 13:20:08;;;;;;;3.75;1.00;;;4.20;99.90;;;;;;5095619;28;20039;-59
2023/03/27 13:23:21;;;;;;;8.65;2.20;;;4.10;99.90;;;;;;5079801;28;20070;-58
2023/03/27 13:25:47;;;;;;;;;;;4.30;99.90;;;;;;5086070;28;20097;-58
2023/03/27 13:28:34;;;;;;;5.32;0.70;;;4.10;99.90;;;;;;5095772;28;19920;-58
2023/03/27 13:31:04;;;;;;;3.47;0.60;;;3.80;99.90;;;;;;5095365;28;20050;-60